Wetterdaten: Woche 27.04.15 - 03.05.15 (KW18)
Datum Zeit Temp. A. Feuchte A. Luftdruck Regen Wind Richtung Taupunkt Windchill Windben
27.04.2015 00:00 11,3 C 82 % 1006,5 hPa 0,0 l/m 0,0 km/h N 8,3 C 11,3 C 0,0 km/h
27.04.2015 01:00 10,5 C 83 % 1006,0 hPa 0,0 l/m 0,0 km/h N 7,7 C 10,5 C 0,0 km/h
27.04.2015 02:00 9,6 C 83 % 1005,4 hPa 0,0 l/m 0,0 km/h N 6,9 C 9,6 C 0,0 km/h
27.04.2015 03:00 8,8 C 83 % 1005,0 hPa 0,0 l/m 0,0 km/h N 6,1 C 8,8 C 0,0 km/h
27.04.2015 04:00 8,1 C 83 % 1004,6 hPa 0,0 l/m 0,0 km/h N 5,3 C 8,1 C 0,0 km/h
27.04.2015 05:00 7,5 C 82 % 1004,1 hPa 0,0 l/m 0,0 km/h N 4,6 C 7,5 C 0,0 km/h
27.04.2015 06:00 7,3 C 81 % 1004,1 hPa 0,0 l/m 0,0 km/h N 4,3 C 7,3 C 0,0 km/h
27.04.2015 07:00 9,6 C 79 % 1003,9 hPa 0,0 l/m 0,1 km/h N 6,1 C 9,6 C 2,0 km/h
27.04.2015 08:00 12,1 C 79 % 1003,6 hPa 0,0 l/m 0,7 km/h N 8,5 C 12,1 C 5,2 km/h
27.04.2015 09:00 14,6 C 81 % 1003,1 hPa 0,0 l/m 1,0 km/h N 11,3 C 14,6 C 7,2 km/h
27.04.2015 10:00 17,5 C 73 % 1002,8 hPa 0,0 l/m 1,3 km/h N 12,5 C 17,5 C 7,2 km/h
27.04.2015 11:00 20,3 C 64 % 1002,1 hPa 0,0 l/m 1,0 km/h N 13,2 C 20,3 C 6,0 km/h
27.04.2015 12:00 24,1 C 49 % 1001,6 hPa 0,0 l/m 2,1 km/h N 12,6 C 24,1 C 10,1 km/h
27.04.2015 13:00 25,0 C 44 % 1001,1 hPa 0,0 l/m 4,3 km/h N 11,9 C 25,0 C 18,1 km/h
27.04.2015 14:00 25,8 C 41 % 1000,5 hPa 0,0 l/m 7,6 km/h N 11,4 C 25,5 C 21,3 km/h
27.04.2015 15:00 25,4 C 41 % 1000,1 hPa 0,0 l/m 9,9 km/h N 11,3 C 24,6 C 26,5 km/h
27.04.2015 16:00 24,8 C 41 % 999,7 hPa 0,0 l/m 10,5 km/h N 10,7 C 23,9 C 26,1 km/h
27.04.2015 17:00 24,4 C 39 % 999,5 hPa 0,0 l/m 10,1 km/h N 9,7 C 23,5 C 26,2 km/h
27.04.2015 18:00 23,1 C 42 % 999,4 hPa 0,0 l/m 8,4 km/h N 9,3 C 22,5 C 28,2 km/h
27.04.2015 19:00 21,9 C 44 % 999,2 hPa 0,0 l/m 7,9 km/h N 9,1 C 21,4 C 21,3 km/h
27.04.2015 20:00 20,4 C 47 % 999,4 hPa 0,0 l/m 7,9 km/h N 8,5 C 19,8 C 23,3 km/h
27.04.2015 21:00 18,9 C 50 % 999,6 hPa 0,0 l/m 4,5 km/h N 8,0 C 18,9 C 18,5 km/h
27.04.2015 22:00 17,7 C 53 % 999,6 hPa 0,0 l/m 2,8 km/h N 8,1 C 17,7 C 13,3 km/h
27.04.2015 23:00 16,8 C 57 % 999,2 hPa 0,0 l/m 2,0 km/h N 8,1 C 16,8 C 10,4 km/h
28.04.2015 00:00 15,2 C 63 % 999,1 hPa 0,0 l/m 1,6 km/h N 8,1 C 15,2 C 6,8 km/h
28.04.2015 01:00 15,1 C 63 % 998,8 hPa 0,0 l/m 1,0 km/h N 8,0 C 15,1 C 7,2 km/h
28.04.2015 02:00 13,8 C 67 % 998,8 hPa 0,0 l/m 0,4 km/h N 7,8 C 13,8 C 4,0 km/h
28.04.2015 03:00 13,8 C 67 % 998,6 hPa 0,0 l/m 0,4 km/h N 7,8 C 13,8 C 4,4 km/h
28.04.2015 04:00 12,9 C 70 % 998,4 hPa 0,0 l/m 0,6 km/h N 7,6 C 12,9 C 4,8 km/h
28.04.2015 05:00 11,4 C 73 % 998,7 hPa 0,0 l/m 0,4 km/h N 6,8 C 11,4 C 4,0 km/h
28.04.2015 06:00 10,0 C 80 % 999,4 hPa 0,0 l/m 0,4 km/h N 6,6 C 10,0 C 4,4 km/h
28.04.2015 07:00 11,5 C 80 % 1000,0 hPa 0,0 l/m 0,5 km/h N 8,1 C 11,5 C 4,4 km/h
28.04.2015 08:00 14,8 C 71 % 1000,6 hPa 0,0 l/m 2,2 km/h N 9,6 C 14,8 C 8,4 km/h
28.04.2015 09:00 17,5 C 61 % 1001,0 hPa 0,0 l/m 6,3 km/h N 9,8 C 17,4 C 16,1 km/h
28.04.2015 10:00 18,1 C 61 % 1001,6 hPa 0,0 l/m 6,5 km/h N 10,5 C 18,0 C 17,7 km/h
28.04.2015 11:00 18,7 C 61 % 1002,3 hPa 0,0 l/m 7,4 km/h N 10,9 C 18,2 C 19,3 km/h
28.04.2015 12:00 18,6 C 62 % 1002,9 hPa 0,0 l/m 6,3 km/h N 11,2 C 18,3 C 19,3 km/h
28.04.2015 13:00 16,6 C 70 % 1003,7 hPa 0,0 l/m 9,4 km/h N 11,2 C 15,2 C 25,0 km/h
28.04.2015 14:00 13,4 C 79 % 1005,0 hPa 1,0 l/m 14,6 km/h N 9,9 C 9,5 C 37,8 km/h
28.04.2015 15:00 11,7 C 80 % 1005,7 hPa 0,3 l/m 18,1 km/h N 8,4 C 6,1 C 48,3 km/h
28.04.2015 16:00 10,8 C 78 % 1006,5 hPa 0,0 l/m 25,1 km/h N 7,2 C 3,0 C 51,5 km/h
28.04.2015 17:00 10,1 C 78 % 1008,0 hPa 0,0 l/m 25,2 km/h N 6,4 C 2,0 C 51,9 km/h
28.04.2015 18:00 9,2 C 78 % 1010,3 hPa 0,0 l/m 19,7 km/h N 5,6 C 2,4 C 46,7 km/h
28.04.2015 19:00 8,2 C 81 % 1012,0 hPa 0,5 l/m 18,1 km/h N 5,2 C 1,7 C 41,0 km/h
28.04.2015 20:00 7,4 C 82 % 1013,9 hPa 1,3 l/m 17,1 km/h N 4,6 C 1,1 C 41,5 km/h
28.04.2015 21:00 6,9 C 82 % 1015,7 hPa 0,5 l/m 15,7 km/h N 4,0 C 1,1 C 37,8 km/h
28.04.2015 22:00 7,4 C 77 % 1016,5 hPa 0,0 l/m 14,9 km/h N 3,7 C 2,1 C 33,8 km/h
28.04.2015 23:00 7,6 C 77 % 1017,3 hPa 0,0 l/m 12,1 km/h N 3,8 C 3,7 C 28,5 km/h
29.04.2015 00:00 7,9 C 79 % 1017,9 hPa 0,0 l/m 11,7 km/h N 4,5 C 4,3 C 29,0 km/h
29.04.2015 01:00 8,2 C 77 % 1018,1 hPa 0,0 l/m 12,6 km/h N 4,4 C 4,1 C 27,4 km/h
29.04.2015 02:00 8,0 C 76 % 1018,4 hPa 0,0 l/m 10,1 km/h N 4,1 C 5,4 C 24,5 km/h
29.04.2015 03:00 7,9 C 78 % 1018,8 hPa 0,0 l/m 9,7 km/h N 4,2 C 5,4 C 24,1 km/h
29.04.2015 04:00 7,8 C 78 % 1019,3 hPa 0,0 l/m 10,0 km/h N 4,2 C 5,1 C 24,9 km/h
29.04.2015 05:00 7,4 C 78 % 1019,8 hPa 0,0 l/m 8,6 km/h N 3,8 C 5,7 C 22,1 km/h
29.04.2015 06:00 7,2 C 79 % 1020,5 hPa 0,0 l/m 8,4 km/h N 3,8 C 5,7 C 21,3 km/h
29.04.2015 07:00 7,8 C 74 % 1021,0 hPa 0,0 l/m 7,3 km/h N 3,5 C 7,1 C 18,1 km/h
29.04.2015 08:00 8,7 C 68 % 1021,4 hPa 0,0 l/m 10,5 km/h N 3,1 C 5,9 C 24,9 km/h
29.04.2015 09:00 9,6 C 64 % 1021,5 hPa 0,0 l/m 11,7 km/h N 3,0 C 6,2 C 24,1 km/h
29.04.2015 10:00 10,7 C 58 % 1021,4 hPa 0,0 l/m 11,9 km/h N 2,8 C 7,4 C 27,8 km/h
29.04.2015 11:00 11,6 C 54 % 1021,4 hPa 0,0 l/m 11,5 km/h N 2,7 C 8,7 C 26,5 km/h
29.04.2015 12:00 12,8 C 51 % 1021,1 hPa 0,0 l/m 10,7 km/h N 2,9 C 10,5 C 25,8 km/h
29.04.2015 13:00 13,9 C 46 % 1020,8 hPa 0,0 l/m 9,6 km/h N 2,4 C 12,1 C 25,3 km/h
29.04.2015 14:00 14,6 C 41 % 1020,2 hPa 0,0 l/m 7,2 km/h N 1,3 C 14,1 C 19,3 km/h
29.04.2015 15:00 14,4 C 38 % 1019,8 hPa 0,0 l/m 6,7 km/h N 0,3 C 14,2 C 20,5 km/h
29.04.2015 16:00 14,4 C 38 % 1019,3 hPa 0,0 l/m 5,0 km/h N 0,1 C 14,4 C 14,9 km/h
29.04.2015 17:00 14,5 C 37 % 1018,7 hPa 0,0 l/m 4,9 km/h N -0,2 C 14,5 C 15,7 km/h
29.04.2015 18:00 14,3 C 37 % 1018,4 hPa 0,0 l/m 2,4 km/h N -0,3 C 14,3 C 10,1 km/h
29.04.2015 19:00 13,0 C 42 % 1018,2 hPa 0,0 l/m 0,3 km/h N 0,2 C 13,0 C 4,8 km/h
29.04.2015 20:00 11,1 C 49 % 1018,7 hPa 0,0 l/m 0,0 km/h N 0,6 C 11,1 C 0,0 km/h
29.04.2015 21:00 8,8 C 60 % 1019,1 hPa 0,0 l/m 0,0 km/h N 1,4 C 8,8 C 0,0 km/h
29.04.2015 22:00 6,7 C 69 % 1019,0 hPa 0,0 l/m 0,0 km/h N 1,4 C 6,7 C 0,4 km/h
29.04.2015 23:00 5,2 C 75 % 1018,9 hPa 0,0 l/m 0,0 km/h N 1,1 C 5,2 C 0,4 km/h
30.04.2015 00:00 4,2 C 79 % 1018,5 hPa 0,0 l/m 0,0 km/h N 0,8 C 4,2 C 0,0 km/h
30.04.2015 01:00 3,4 C 81 % 1018,2 hPa 0,0 l/m 0,0 km/h N 0,4 C 3,4 C 0,0 km/h
30.04.2015 02:00 2,7 C 82 % 1017,5 hPa 0,0 l/m 0,0 km/h N -0,1 C 2,7 C 0,0 km/h
30.04.2015 03:00 2,2 C 84 % 1017,1 hPa 0,0 l/m 0,0 km/h N -0,3 C 2,2 C 0,0 km/h
30.04.2015 04:00 1,8 C 84 % 1016,9 hPa 0,0 l/m 0,0 km/h N -0,6 C 1,8 C 0,0 km/h
30.04.2015 05:00 1,6 C 84 % 1016,7 hPa 0,0 l/m 0,0 km/h N -0,8 C 1,6 C 0,0 km/h
30.04.2015 06:00 1,7 C 84 % 1016,8 hPa 0,0 l/m 0,0 km/h N -0,8 C 1,7 C 0,0 km/h
30.04.2015 07:00 3,8 C 83 % 1016,9 hPa 0,0 l/m 0,8 km/h N 1,1 C 3,8 C 4,0 km/h
30.04.2015 08:00 7,5 C 76 % 1017,0 hPa 0,0 l/m 2,6 km/h N 3,5 C 7,5 C 7,6 km/h
30.04.2015 09:00 10,4 C 63 % 1016,9 hPa 0,0 l/m 1,8 km/h N 3,8 C 10,4 C 7,2 km/h
30.04.2015 10:00 12,6 C 55 % 1016,9 hPa 0,0 l/m 1,8 km/h N 3,9 C 12,6 C 8,0 km/h
30.04.2015 11:00 15,5 C 53 % 1016,5 hPa 0,0 l/m 1,0 km/h N 5,9 C 15,5 C 8,9 km/h
30.04.2015 12:00 16,3 C 50 % 1016,1 hPa 0,0 l/m 5,4 km/h N 5,9 C 16,0 C 18,9 km/h
30.04.2015 13:00 16,3 C 48 % 1015,8 hPa 0,0 l/m 8,7 km/h N 5,1 C 15,2 C 22,9 km/h
30.04.2015 14:00 16,3 C 49 % 1015,4 hPa 0,0 l/m 6,1 km/h N 5,6 C 16,1 C 17,3 km/h
30.04.2015 15:00 16,7 C 47 % 1014,8 hPa 0,0 l/m 6,0 km/h N 5,2 C 16,5 C 16,9 km/h
30.04.2015 16:00 17,1 C 49 % 1014,2 hPa 0,0 l/m 3,0 km/h N 6,2 C 17,1 C 10,1 km/h
30.04.2015 17:00 16,2 C 51 % 1014,4 hPa 0,0 l/m 7,4 km/h N 6,1 C 15,1 C 18,9 km/h
30.04.2015 18:00 13,6 C 61 % 1015,3 hPa 0,0 l/m 4,2 km/h N 6,1 C 13,5 C 22,1 km/h
30.04.2015 19:00 11,4 C 74 % 1015,5 hPa 1,3 l/m 1,9 km/h N 6,8 C 11,4 C 13,3 km/h
30.04.2015 20:00 10,1 C 81 % 1015,5 hPa 0,3 l/m 1,2 km/h N 7,0 C 10,1 C 8,8 km/h
30.04.2015 21:00 9,7 C 83 % 1015,2 hPa 0,0 l/m 0,4 km/h N 6,9 C 9,7 C 4,8 km/h
30.04.2015 22:00 9,4 C 83 % 1014,7 hPa 0,0 l/m 0,1 km/h N 6,7 C 9,4 C 2,0 km/h
30.04.2015 23:00 9,0 C 83 % 1014,1 hPa 0,0 l/m 0,1 km/h N 6,3 C 9,0 C 2,4 km/h
01.05.2015 00:00 7,9 C 84 % 1013,6 hPa 0,0 l/m 0,0 km/h N 5,3 C 7,9 C 0,8 km/h
01.05.2015 01:00 7,0 C 84 % 1013,1 hPa 0,0 l/m 0,0 km/h N 4,5 C 7,0 C 0,0 km/h
01.05.2015 02:00 7,0 C 83 % 1012,7 hPa 0,0 l/m 0,1 km/h N 4,3 C 7,0 C 1,6 km/h
01.05.2015 03:00 7,0 C 83 % 1012,2 hPa 0,0 l/m 0,1 km/h N 4,3 C 7,0 C 2,0 km/h
01.05.2015 04:00 7,0 C 83 % 1011,6 hPa 0,0 l/m 0,0 km/h N 4,3 C 7,0 C 0,0 km/h
01.05.2015 05:00 7,2 C 82 % 1011,0 hPa 0,0 l/m 0,0 km/h N 4,3 C 7,2 C 0,8 km/h
01.05.2015 06:00 7,2 C 82 % 1010,8 hPa 0,0 l/m 0,0 km/h N 4,3 C 7,2 C 0,8 km/h
01.05.2015 07:00 7,8 C 81 % 1010,9 hPa 0,0 l/m 0,1 km/h N 4,8 C 7,8 C 0,8 km/h
01.05.2015 08:00 8,9 C 82 % 1010,8 hPa 0,0 l/m 0,1 km/h N 5,9 C 8,9 C 1,6 km/h
01.05.2015 09:00 10,0 C 82 % 1010,6 hPa 0,0 l/m 0,6 km/h N 7,1 C 10,0 C 4,4 km/h
01.05.2015 10:00 12,3 C 73 % 1010,3 hPa 0,0 l/m 1,9 km/h N 7,5 C 12,3 C 6,8 km/h
01.05.2015 11:00 14,2 C 64 % 1009,5 hPa 0,0 l/m 3,5 km/h N 7,4 C 14,2 C 10,5 km/h
01.05.2015 12:00 15,6 C 60 % 1008,8 hPa 0,0 l/m 1,7 km/h N 7,8 C 15,6 C 8,9 km/h
01.05.2015 13:00 16,0 C 58 % 1008,2 hPa 0,0 l/m 1,6 km/h N 7,7 C 16,0 C 8,0 km/h
01.05.2015 14:00 16,8 C 58 % 1007,7 hPa 0,0 l/m 1,0 km/h N 8,4 C 16,8 C 6,8 km/h
01.05.2015 15:00 16,5 C 58 % 1007,3 hPa 0,0 l/m 0,6 km/h N 8,2 C 16,5 C 6,0 km/h
01.05.2015 16:00 16,8 C 60 % 1006,7 hPa 0,0 l/m 0,5 km/h N 9,0 C 16,8 C 6,0 km/h
01.05.2015 17:00 16,6 C 59 % 1006,3 hPa 0,0 l/m 0,3 km/h N 8,6 C 16,6 C 4,4 km/h
01.05.2015 18:00 15,3 C 65 % 1005,9 hPa 0,0 l/m 2,0 km/h N 8,8 C 15,2 C 6,8 km/h
01.05.2015 19:00 13,2 C 75 % 1006,0 hPa 0,0 l/m 5,5 km/h N 8,9 C 13,2 C 14,5 km/h
01.05.2015 20:00 12,2 C 81 % 1006,0 hPa 0,3 l/m 1,8 km/h N 9,0 C 12,2 C 8,0 km/h
01.05.2015 21:00 11,8 C 83 % 1005,8 hPa 0,3 l/m 0,0 km/h N 8,9 C 11,8 C 0,8 km/h
01.05.2015 22:00 11,4 C 83 % 1005,3 hPa 0,0 l/m 0,2 km/h N 8,6 C 11,4 C 3,6 km/h
01.05.2015 23:00 11,0 C 83 % 1005,2 hPa 0,0 l/m 0,0 km/h N 8,1 C 11,0 C 1,2 km/h
02.05.2015 00:00 10,5 C 82 % 1005,0 hPa 0,0 l/m 0,0 km/h N 7,5 C 10,5 C 0,0 km/h
02.05.2015 01:00 10,5 C 82 % 1005,0 hPa 0,0 l/m 0,1 km/h N 7,5 C 10,5 C 0,8 km/h
02.05.2015 02:00 10,6 C 81 % 1004,7 hPa 0,0 l/m 0,1 km/h N 7,5 C 10,6 C 0,8 km/h
02.05.2015 03:00 10,6 C 81 % 1004,6 hPa 0,8 l/m 0,0 km/h N 7,5 C 10,6 C 0,0 km/h
02.05.2015 04:00 10,7 C 80 % 1004,6 hPa 0,8 l/m 0,0 km/h N 7,4 C 10,7 C 0,0 km/h
02.05.2015 05:00 10,9 C 80 % 1004,7 hPa 0,5 l/m 0,1 km/h N 7,5 C 10,9 C 0,8 km/h
02.05.2015 06:00 10,8 C 80 % 1005,5 hPa 0,3 l/m 0,2 km/h N 7,4 C 10,8 C 2,4 km/h
02.05.2015 07:00 10,8 C 79 % 1006,4 hPa 0,0 l/m 0,9 km/h N 7,3 C 10,8 C 3,6 km/h
02.05.2015 08:00 10,8 C 79 % 1007,6 hPa 0,5 l/m 1,6 km/h N 7,2 C 10,8 C 7,2 km/h
02.05.2015 09:00 11,0 C 78 % 1008,7 hPa 0,0 l/m 4,7 km/h N 7,4 C 11,0 C 12,5 km/h
02.05.2015 10:00 11,6 C 81 % 1009,5 hPa 0,0 l/m 6,7 km/h N 8,4 C 11,4 C 18,9 km/h
02.05.2015 11:00 12,4 C 83 % 1010,1 hPa 0,0 l/m 8,4 km/h N 9,6 C 11,2 C 22,9 km/h
02.05.2015 12:00 12,4 C 83 % 1010,9 hPa 0,0 l/m 7,5 km/h N 9,5 C 11,7 C 18,1 km/h
02.05.2015 13:00 12,3 C 82 % 1011,4 hPa 0,0 l/m 6,2 km/h N 9,2 C 12,2 C 15,7 km/h
02.05.2015 14:00 12,7 C 79 % 1011,6 hPa 0,0 l/m 6,7 km/h N 9,2 C 12,2 C 17,7 km/h
02.05.2015 15:00 12,7 C 79 % 1011,8 hPa 0,0 l/m 5,5 km/h N 9,1 C 12,7 C 14,9 km/h
02.05.2015 16:00 12,8 C 79 % 1012,2 hPa 0,0 l/m 4,7 km/h N 9,3 C 12,8 C 14,5 km/h
02.05.2015 17:00 12,8 C 80 % 1012,3 hPa 0,3 l/m 4,1 km/h N 9,3 C 12,8 C 11,7 km/h
02.05.2015 18:00 12,8 C 79 % 1012,5 hPa 0,0 l/m 3,2 km/h N 9,3 C 12,8 C 9,7 km/h
02.05.2015 19:00 12,8 C 78 % 1012,8 hPa 0,0 l/m 1,3 km/h N 9,0 C 12,8 C 8,0 km/h
02.05.2015 20:00 12,3 C 79 % 1013,0 hPa 0,0 l/m 0,5 km/h N 8,7 C 12,3 C 5,2 km/h
02.05.2015 21:00 12,0 C 79 % 1013,3 hPa 0,0 l/m 1,0 km/h N 8,4 C 12,0 C 4,8 km/h
02.05.2015 22:00 11,2 C 79 % 1013,5 hPa 0,0 l/m 0,0 km/h N 7,7 C 11,2 C 0,8 km/h
02.05.2015 23:00 9,9 C 82 % 1013,7 hPa 0,0 l/m 0,7 km/h N 7,0 C 9,9 C 6,0 km/h
03.05.2015 00:00 9,2 C 83 % 1013,7 hPa 0,0 l/m 0,1 km/h N 6,5 C 9,2 C 1,2 km/h
03.05.2015 01:00 8,0 C 84 % 1013,5 hPa 0,0 l/m 0,0 km/h N 5,4 C 8,0 C 0,0 km/h
03.05.2015 02:00 7,6 C 83 % 1013,3 hPa 0,0 l/m 0,1 km/h N 5,0 C 7,6 C 2,0 km/h
03.05.2015 03:00 7,3 C 83 % 1013,1 hPa 0,0 l/m 0,0 km/h N 4,6 C 7,3 C 0,0 km/h
03.05.2015 04:00 7,1 C 82 % 1012,8 hPa 0,0 l/m 0,0 km/h N 4,2 C 7,1 C 0,0 km/h
03.05.2015 05:00 7,7 C 81 % 1012,5 hPa 0,0 l/m 0,0 km/h N 4,6 C 7,7 C 0,0 km/h
03.05.2015 06:00 8,2 C 81 % 1012,4 hPa 0,0 l/m 0,0 km/h N 5,0 C 8,2 C 0,0 km/h
03.05.2015 07:00 8,9 C 80 % 1012,5 hPa 0,0 l/m 0,0 km/h N 5,7 C 8,9 C 1,2 km/h
03.05.2015 08:00 10,1 C 79 % 1012,4 hPa 0,0 l/m 0,0 km/h N 6,7 C 10,1 C 0,8 km/h
03.05.2015 09:00 11,4 C 79 % 1012,2 hPa 0,3 l/m 0,5 km/h N 8,0 C 11,4 C 4,4 km/h
03.05.2015 10:00 12,8 C 82 % 1012,1 hPa 0,0 l/m 3,4 km/h N 9,8 C 12,8 C 12,9 km/h
03.05.2015 11:00 13,7 C 81 % 1011,8 hPa 0,0 l/m 4,2 km/h N 10,4 C 13,7 C 17,3 km/h
03.05.2015 12:00 13,9 C 81 % 1011,4 hPa 0,0 l/m 3,6 km/h N 10,6 C 13,9 C 13,3 km/h
03.05.2015 13:00 14,2 C 79 % 1011,5 hPa 0,0 l/m 3,9 km/h N 10,6 C 14,2 C 14,5 km/h
03.05.2015 14:00 14,2 C 79 % 1011,7 hPa 0,0 l/m 2,4 km/h N 10,5 C 14,2 C 11,3 km/h
03.05.2015 15:00 13,8 C 80 % 1011,7 hPa 0,0 l/m 2,5 km/h N 10,4 C 13,8 C 14,1 km/h
03.05.2015 16:00 13,9 C 80 % 1011,5 hPa 0,0 l/m 1,0 km/h N 10,5 C 13,9 C 8,4 km/h
03.05.2015 17:00 13,9 C 80 % 1011,3 hPa 0,0 l/m 0,4 km/h N 10,5 C 13,9 C 4,4 km/h
03.05.2015 18:00 13,8 C 80 % 1011,3 hPa 0,0 l/m 0,2 km/h N 10,5 C 13,8 C 4,0 km/h
03.05.2015 19:00 13,5 C 81 % 1011,4 hPa 0,0 l/m 0,1 km/h N 10,3 C 13,5 C 2,8 km/h
03.05.2015 20:00 12,8 C 83 % 1011,7 hPa 0,5 l/m 0,0 km/h N 9,9 C 12,8 C 0,4 km/h
03.05.2015 21:00 12,3 C 83 % 1011,9 hPa 0,3 l/m 0,0 km/h N 9,5 C 12,3 C 0,0 km/h
03.05.2015 22:00 12,0 C 83 % 1011,8 hPa 0,0 l/m 0,0 km/h N 9,2 C 12,0 C 0,0 km/h
03.05.2015 23:00 11,8 C 82 % 1011,4 hPa 0,0 l/m 0,0 km/h N 8,8 C 11,8 C 0,0 km/h
Min-Datum _ 30.04.15 29.04.15 28.04.15 - 27.04.15 - 30.04.15 28.04.15 27.04.15
_ Min-Zeit 06:15 17:30 04:30 - 00:00 - 06:00 20:15 00:00
Minimum _ 1,5 C 35 % 998,2 hPa - 0,0 km/h - -0,9 C 0,2 C 0,0 km/h
Max-Datum _ 27.04.15 30.04.15 29.04.15 28.04.15 28.04.15 - 27.04.15 27.04.15 28.04.15
_ Max-Zeit 14:45 03:30 08:45 20:15 16:45 - 11:45 13:45 16:30
Maximum _ 26,1 C 84 % 1021,6 hPa 1,3 l/m 29,9 km/h
N
- 13,8 C 25,8 C 57,9 km/h
N
Durchschnitt _ 12,0 C 71 % 1010,5 hPa #9,9 l/m 3,8 km/h N 6,6 C 11,3 C 11,2 km/h